Allerton, United Kingdom
Current Conditions -  °F | °C
As of 1:20 AM on Saturday 20 Dec 2014 (Local Time) from EGNM Reporting Station
Scattered Clouds Scattered Clouds  
Wind Chill: 32°   Ceiling: Unl
Heat Index: 41°   Visibility: 6mi
Dew Point: 37°   Wind: 21mph
Humidity: 87%   Direction: 260°W
Pressure: 29.97"   Gusts: 36mph
Location:  53.82°N, 1.86°W
Report Text: EGNM 200120Z 26018G31KT 220V290 9999 SCT025 05/03 Q1015
Loading
Personal Weather Stations






























Interactive Weather Map New forecast layout! Learn more

10-Day Weather Forecast

Advertisements
Track Severe Weather on mobile